Dayville, Connecticut
Current Conditions -  °F | °C
As of 3:52 PM on Friday 31 Oct 2014 (Local Time) from KIJD Reporting Station
Overcast Overcast  
Wind Chill: 54°   Ceiling: 4000
Heat Index: 54°   Visibility: 10mi
Dew Point: 38°   Wind: 9mph
Humidity: 55%   Direction: 60°ENE
Pressure: 29.94"   Gusts: NA
Location:  41.84°N, 71.91°W
Report Text: KIJD 311952Z AUTO 06008KT 10SM BKN040 OVC050 12/03 A2994 RMK AO2 SLP140 T01220033
Loading
Personal Weather Stations






























Interactive Weather Map
Tropical Storm Tracking
New forecast layout! Learn more

10-Day Weather Forecast

Advertisements
Track Severe Weather on mobile